sensor_id;sensor_type;location;lat;lon;timestamp;P1;durP1;ratioP1;P2;durP2;ratioP2
21480;SDS011;10902;48.158;8.634;2023-04-24T00:01:39;2.20;;;0.70;;
21480;SDS011;10902;48.158;8.634;2023-04-24T00:04:05;2.80;;;0.57;;
21480;SDS011;10902;48.158;8.634;2023-04-24T00:06:32;2.88;;;0.63;;
21480;SDS011;10902;48.158;8.634;2023-04-24T00:09:01;2.58;;;0.63;;
21480;SDS011;10902;48.158;8.634;2023-04-24T00:11:27;1.30;;;0.40;;
21480;SDS011;10902;48.158;8.634;2023-04-24T00:13:53;1.52;;;0.45;;
21480;SDS011;10902;48.158;8.634;2023-04-24T00:16:19;2.50;;;0.65;;
21480;SDS011;10902;48.158;8.634;2023-04-24T00:18:45;2.88;;;0.63;;
21480;SDS011;10902;48.158;8.634;2023-04-24T00:21:12;2.28;;;0.50;;
21480;SDS011;10902;48.158;8.634;2023-04-24T00:23:38;1.50;;;0.40;;
21480;SDS011;10902;48.158;8.634;2023-04-24T00:26:04;3.17;;;0.50;;
21480;SDS011;10902;48.158;8.634;2023-04-24T00:28:30;2.95;;;0.50;;
21480;SDS011;10902;48.158;8.634;2023-04-24T00:30:55;2.78;;;0.68;;
21480;SDS011;10902;48.158;8.634;2023-04-24T00:33:21;2.80;;;0.60;;
21480;SDS011;10902;48.158;8.634;2023-04-24T00:35:46;1.15;;;0.45;;
21480;SDS011;10902;48.158;8.634;2023-04-24T00:38:12;1.73;;;0.50;;
21480;SDS011;10902;48.158;8.634;2023-04-24T00:40:37;1.35;;;0.50;;
21480;SDS011;10902;48.158;8.634;2023-04-24T00:43:03;1.58;;;0.50;;
21480;SDS011;10902;48.158;8.634;2023-04-24T00:45:29;2.38;;;0.50;;
21480;SDS011;10902;48.158;8.634;2023-04-24T00:47:56;1.33;;;0.40;;
21480;SDS011;10902;48.158;8.634;2023-04-24T00:50:23;1.65;;;0.50;;
21480;SDS011;10902;48.158;8.634;2023-04-24T00:52:49;2.80;;;0.70;;
21480;SDS011;10902;48.158;8.634;2023-04-24T00:55:15;2.45;;;0.50;;
21480;SDS011;10902;48.158;8.634;2023-04-24T00:57:41;1.95;;;0.60;;
21480;SDS011;10902;48.158;8.634;2023-04-24T01:00:08;1.50;;;0.40;;
21480;SDS011;10902;48.158;8.634;2023-04-24T01:02:40;1.80;;;0.45;;
21480;SDS011;10902;48.158;8.634;2023-04-24T01:05:10;1.42;;;0.43;;
21480;SDS011;10902;48.158;8.634;2023-04-24T01:07:37;2.55;;;0.60;;
21480;SDS011;10902;48.158;8.634;2023-04-24T01:10:04;1.55;;;0.55;;
21480;SDS011;10902;48.158;8.634;2023-04-24T01:12:31;1.58;;;0.60;;
21480;SDS011;10902;48.158;8.634;2023-04-24T01:14:57;3.67;;;0.90;;
21480;SDS011;10902;48.158;8.634;2023-04-24T01:17:23;2.40;;;0.60;;
21480;SDS011;10902;48.158;8.634;2023-04-24T01:19:48;3.30;;;0.90;;
21480;SDS011;10902;48.158;8.634;2023-04-24T01:22:14;3.25;;;0.60;;
21480;SDS011;10902;48.158;8.634;2023-04-24T01:24:41;3.33;;;0.82;;
21480;SDS011;10902;48.158;8.634;2023-04-24T01:27:07;2.75;;;0.60;;
21480;SDS011;10902;48.158;8.634;2023-04-24T01:29:34;2.17;;;0.90;;
21480;SDS011;10902;48.158;8.634;2023-04-24T01:32:00;2.03;;;0.60;;
21480;SDS011;10902;48.158;8.634;2023-04-24T01:34:26;2.72;;;0.95;;
21480;SDS011;10902;48.158;8.634;2023-04-24T01:36:52;4.32;;;0.82;;
21480;SDS011;10902;48.158;8.634;2023-04-24T01:39:17;4.32;;;1.20;;
21480;SDS011;10902;48.158;8.634;2023-04-24T01:41:45;2.40;;;0.65;;
21480;SDS011;10902;48.158;8.634;2023-04-24T01:44:11;3.08;;;0.75;;
21480;SDS011;10902;48.158;8.634;2023-04-24T01:46:37;2.83;;;0.80;;
21480;SDS011;10902;48.158;8.634;2023-04-24T01:49:03;4.30;;;0.90;;
21480;SDS011;10902;48.158;8.634;2023-04-24T01:51:28;2.75;;;1.00;;
21480;SDS011;10902;48.158;8.634;2023-04-24T01:53:55;2.95;;;0.88;;
21480;SDS011;10902;48.158;8.634;2023-04-24T01:56:21;4.45;;;1.17;;
21480;SDS011;10902;48.158;8.634;2023-04-24T01:58:47;4.00;;;1.67;;
21480;SDS011;10902;48.158;8.634;2023-04-24T02:01:18;3.70;;;1.20;;
21480;SDS011;10902;48.158;8.634;2023-04-24T02:03:44;3.30;;;1.23;;
21480;SDS011;10902;48.158;8.634;2023-04-24T02:06:10;3.75;;;1.35;;
21480;SDS011;10902;48.158;8.634;2023-04-24T02:08:35;3.85;;;1.13;;
21480;SDS011;10902;48.158;8.634;2023-04-24T02:11:01;4.28;;;1.67;;
21480;SDS011;10902;48.158;8.634;2023-04-24T02:13:27;3.83;;;1.10;;
21480;SDS011;10902;48.158;8.634;2023-04-24T02:15:53;5.30;;;1.30;;
21480;SDS011;10902;48.158;8.634;2023-04-24T02:18:18;3.95;;;1.30;;
21480;SDS011;10902;48.158;8.634;2023-04-24T02:20:44;4.35;;;1.55;;
21480;SDS011;10902;48.158;8.634;2023-04-24T02:23:10;3.60;;;1.50;;
21480;SDS011;10902;48.158;8.634;2023-04-24T02:25:36;4.57;;;1.30;;
21480;SDS011;10902;48.158;8.634;2023-04-24T02:28:02;4.57;;;1.30;;
21480;SDS011;10902;48.158;8.634;2023-04-24T02:30:28;3.75;;;1.60;;
21480;SDS011;10902;48.158;8.634;2023-04-24T02:32:53;6.20;;;1.77;;
21480;SDS011;10902;48.158;8.634;2023-04-24T02:38:11;3.88;;;1.30;;
21480;SDS011;10902;48.158;8.634;2023-04-24T02:40:36;5.72;;;1.60;;
21480;SDS011;10902;48.158;8.634;2023-04-24T02:43:02;4.43;;;1.73;;
21480;SDS011;10902;48.158;8.634;2023-04-24T02:45:27;10.63;;;1.88;;
21480;SDS011;10902;48.158;8.634;2023-04-24T02:47:53;3.10;;;1.27;;
21480;SDS011;10902;48.158;8.634;2023-04-24T02:50:18;3.63;;;1.50;;
21480;SDS011;10902;48.158;8.634;2023-04-24T02:52:44;3.90;;;1.45;;
21480;SDS011;10902;48.158;8.634;2023-04-24T02:55:09;4.10;;;1.80;;
21480;SDS011;10902;48.158;8.634;2023-04-24T02:57:35;4.30;;;1.70;;
21480;SDS011;10902;48.158;8.634;2023-04-24T03:00:01;3.95;;;1.90;;
21480;SDS011;10902;48.158;8.634;2023-04-24T03:02:28;5.30;;;1.80;;
21480;SDS011;10902;48.158;8.634;2023-04-24T03:04:53;4.85;;;1.80;;
21480;SDS011;10902;48.158;8.634;2023-04-24T03:07:20;4.80;;;1.80;;
21480;SDS011;10902;48.158;8.634;2023-04-24T03:09:45;3.90;;;2.00;;
21480;SDS011;10902;48.158;8.634;2023-04-24T03:12:12;4.60;;;1.98;;
21480;SDS011;10902;48.158;8.634;2023-04-24T03:14:37;3.65;;;1.48;;
21480;SDS011;10902;48.158;8.634;2023-04-24T03:17:03;4.28;;;1.52;;
21480;SDS011;10902;48.158;8.634;2023-04-24T03:19:29;3.58;;;1.40;;
21480;SDS011;10902;48.158;8.634;2023-04-24T03:21:55;7.15;;;2.65;;
21480;SDS011;10902;48.158;8.634;2023-04-24T03:24:20;4.38;;;1.70;;
21480;SDS011;10902;48.158;8.634;2023-04-24T03:26:46;4.57;;;1.30;;
21480;SDS011;10902;48.158;8.634;2023-04-24T03:29:11;4.80;;;1.60;;
21480;SDS011;10902;48.158;8.634;2023-04-24T03:31:37;7.35;;;2.05;;
21480;SDS011;10902;48.158;8.634;2023-04-24T03:34:02;4.22;;;1.65;;
21480;SDS011;10902;48.158;8.634;2023-04-24T03:36:28;4.18;;;1.70;;
21480;SDS011;10902;48.158;8.634;2023-04-24T03:38:53;3.67;;;1.65;;
21480;SDS011;10902;48.158;8.634;2023-04-24T03:41:19;3.40;;;1.60;;
21480;SDS011;10902;48.158;8.634;2023-04-24T03:43:45;4.70;;;1.70;;
21480;SDS011;10902;48.158;8.634;2023-04-24T03:46:10;5.78;;;1.60;;
21480;SDS011;10902;48.158;8.634;2023-04-24T03:48:36;5.55;;;1.92;;
21480;SDS011;10902;48.158;8.634;2023-04-24T03:51:01;5.97;;;1.55;;
21480;SDS011;10902;48.158;8.634;2023-04-24T03:53:27;3.35;;;1.25;;
21480;SDS011;10902;48.158;8.634;2023-04-24T03:55:53;3.83;;;1.27;;
21480;SDS011;10902;48.158;8.634;2023-04-24T03:58:18;4.25;;;1.40;;
21480;SDS011;10902;48.158;8.634;2023-04-24T04:00:44;4.15;;;1.40;;
21480;SDS011;10902;48.158;8.634;2023-04-24T04:03:12;3.92;;;1.15;;
21480;SDS011;10902;48.158;8.634;2023-04-24T04:05:39;5.57;;;1.63;;
21480;SDS011;10902;48.158;8.634;2023-04-24T04:08:05;3.85;;;1.30;;
21480;SDS011;10902;48.158;8.634;2023-04-24T04:10:30;4.55;;;1.40;;
21480;SDS011;10902;48.158;8.634;2023-04-24T04:12:56;3.78;;;1.40;;
21480;SDS011;10902;48.158;8.634;2023-04-24T04:15:21;3.85;;;1.25;;
21480;SDS011;10902;48.158;8.634;2023-04-24T04:17:47;3.15;;;1.30;;
21480;SDS011;10902;48.158;8.634;2023-04-24T04:20:13;3.33;;;1.30;;
21480;SDS011;10902;48.158;8.634;2023-04-24T04:22:38;4.18;;;1.40;;
21480;SDS011;10902;48.158;8.634;2023-04-24T04:25:04;3.40;;;1.50;;
21480;SDS011;10902;48.158;8.634;2023-04-24T04:27:30;5.00;;;1.48;;
21480;SDS011;10902;48.158;8.634;2023-04-24T04:29:57;4.97;;;1.70;;
21480;SDS011;10902;48.158;8.634;2023-04-24T04:32:26;4.20;;;1.40;;
21480;SDS011;10902;48.158;8.634;2023-04-24T04:34:52;4.43;;;1.30;;
21480;SDS011;10902;48.158;8.634;2023-04-24T04:37:18;6.03;;;1.88;;
21480;SDS011;10902;48.158;8.634;2023-04-24T04:39:44;3.80;;;1.80;;
21480;SDS011;10902;48.158;8.634;2023-04-24T04:42:09;5.18;;;2.17;;
21480;SDS011;10902;48.158;8.634;2023-04-24T04:44:35;4.10;;;2.15;;
21480;SDS011;10902;48.158;8.634;2023-04-24T04:47:01;4.63;;;2.28;;
21480;SDS011;10902;48.158;8.634;2023-04-24T04:49:30;4.82;;;2.20;;
21480;SDS011;10902;48.158;8.634;2023-04-24T04:51:59;5.50;;;2.80;;
21480;SDS011;10902;48.158;8.634;2023-04-24T04:54:25;7.05;;;2.97;;
21480;SDS011;10902;48.158;8.634;2023-04-24T04:56:50;6.53;;;2.80;;
21480;SDS011;10902;48.158;8.634;2023-04-24T04:59:16;5.63;;;2.83;;
21480;SDS011;10902;48.158;8.634;2023-04-24T05:01:42;5.38;;;2.63;;
21480;SDS011;10902;48.158;8.634;2023-04-24T05:04:07;5.88;;;2.85;;
21480;SDS011;10902;48.158;8.634;2023-04-24T05:06:33;7.28;;;2.63;;
21480;SDS011;10902;48.158;8.634;2023-04-24T05:08:58;5.32;;;3.10;;
21480;SDS011;10902;48.158;8.634;2023-04-24T05:11:24;6.75;;;2.88;;
21480;SDS011;10902;48.158;8.634;2023-04-24T05:13:49;4.95;;;2.92;;
21480;SDS011;10902;48.158;8.634;2023-04-24T05:16:15;5.80;;;2.75;;
21480;SDS011;10902;48.158;8.634;2023-04-24T05:18:41;5.88;;;2.65;;
21480;SDS011;10902;48.158;8.634;2023-04-24T05:21:06;4.60;;;2.70;;
21480;SDS011;10902;48.158;8.634;2023-04-24T05:23:32;5.85;;;2.92;;
21480;SDS011;10902;48.158;8.634;2023-04-24T05:25:57;4.97;;;2.55;;
21480;SDS011;10902;48.158;8.634;2023-04-24T05:28:23;5.15;;;2.80;;
21480;SDS011;10902;48.158;8.634;2023-04-24T05:30:53;6.07;;;2.97;;
21480;SDS011;10902;48.158;8.634;2023-04-24T05:33:20;5.88;;;3.30;;
21480;SDS011;10902;48.158;8.634;2023-04-24T05:35:45;6.10;;;3.15;;
21480;SDS011;10902;48.158;8.634;2023-04-24T05:38:12;6.22;;;2.63;;
21480;SDS011;10902;48.158;8.634;2023-04-24T05:40:38;5.50;;;2.47;;
21480;SDS011;10902;48.158;8.634;2023-04-24T05:43:04;6.35;;;3.10;;
21480;SDS011;10902;48.158;8.634;2023-04-24T05:45:29;5.63;;;3.00;;
21480;SDS011;10902;48.158;8.634;2023-04-24T05:47:55;5.88;;;3.53;;
21480;SDS011;10902;48.158;8.634;2023-04-24T05:50:21;7.75;;;3.58;;
21480;SDS011;10902;48.158;8.634;2023-04-24T05:52:46;5.10;;;2.95;;
21480;SDS011;10902;48.158;8.634;2023-04-24T05:55:12;7.05;;;3.22;;
21480;SDS011;10902;48.158;8.634;2023-04-24T05:57:38;6.75;;;3.53;;
21480;SDS011;10902;48.158;8.634;2023-04-24T06:00:04;5.50;;;3.10;;
21480;SDS011;10902;48.158;8.634;2023-04-24T06:02:30;4.28;;;2.17;;
21480;SDS011;10902;48.158;8.634;2023-04-24T06:04:58;5.20;;;2.58;;
21480;SDS011;10902;48.158;8.634;2023-04-24T06:07:24;4.20;;;2.20;;
21480;SDS011;10902;48.158;8.634;2023-04-24T06:09:51;4.22;;;2.20;;
21480;SDS011;10902;48.158;8.634;2023-04-24T06:12:17;4.57;;;2.38;;
21480;SDS011;10902;48.158;8.634;2023-04-24T06:14:42;4.78;;;2.20;;
21480;SDS011;10902;48.158;8.634;2023-04-24T06:17:08;4.88;;;2.38;;
21480;SDS011;10902;48.158;8.634;2023-04-24T06:19:41;5.55;;;2.40;;
21480;SDS011;10902;48.158;8.634;2023-04-24T06:22:10;5.45;;;2.42;;
21480;SDS011;10902;48.158;8.634;2023-04-24T06:24:41;4.72;;;2.30;;
21480;SDS011;10902;48.158;8.634;2023-04-24T06:27:07;3.58;;;1.90;;
21480;SDS011;10902;48.158;8.634;2023-04-24T06:29:33;4.45;;;1.83;;
21480;SDS011;10902;48.158;8.634;2023-04-24T06:31:59;3.72;;;2.05;;
21480;SDS011;10902;48.158;8.634;2023-04-24T06:34:24;5.05;;;2.30;;
21480;SDS011;10902;48.158;8.634;2023-04-24T06:36:50;6.85;;;2.65;;
21480;SDS011;10902;48.158;8.634;2023-04-24T06:39:16;6.10;;;2.85;;
21480;SDS011;10902;48.158;8.634;2023-04-24T06:41:41;5.70;;;3.25;;
21480;SDS011;10902;48.158;8.634;2023-04-24T06:44:07;4.78;;;2.33;;
21480;SDS011;10902;48.158;8.634;2023-04-24T06:46:32;5.53;;;2.80;;
21480;SDS011;10902;48.158;8.634;2023-04-24T06:48:58;5.25;;;2.58;;
21480;SDS011;10902;48.158;8.634;2023-04-24T06:51:24;6.07;;;2.50;;
21480;SDS011;10902;48.158;8.634;2023-04-24T06:53:51;5.40;;;2.40;;
21480;SDS011;10902;48.158;8.634;2023-04-24T06:56:17;3.83;;;1.65;;
21480;SDS011;10902;48.158;8.634;2023-04-24T06:58:43;7.28;;;2.58;;
21480;SDS011;10902;48.158;8.634;2023-04-24T07:01:09;3.70;;;1.40;;
21480;SDS011;10902;48.158;8.634;2023-04-24T07:03:35;3.58;;;1.13;;
21480;SDS011;10902;48.158;8.634;2023-04-24T07:06:01;3.20;;;1.27;;
21480;SDS011;10902;48.158;8.634;2023-04-24T07:08:28;3.30;;;1.27;;
21480;SDS011;10902;48.158;8.634;2023-04-24T07:10:55;4.93;;;1.40;;
21480;SDS011;10902;48.158;8.634;2023-04-24T07:13:21;3.92;;;1.40;;
21480;SDS011;10902;48.158;8.634;2023-04-24T07:15:47;3.25;;;1.23;;
21480;SDS011;10902;48.158;8.634;2023-04-24T07:18:15;3.00;;;1.10;;
21480;SDS011;10902;48.158;8.634;2023-04-24T07:20:41;5.45;;;1.70;;
21480;SDS011;10902;48.158;8.634;2023-04-24T07:23:07;4.47;;;1.52;;
21480;SDS011;10902;48.158;8.634;2023-04-24T07:25:32;3.67;;;1.48;;
21480;SDS011;10902;48.158;8.634;2023-04-24T07:27:58;4.22;;;1.40;;
21480;SDS011;10902;48.158;8.634;2023-04-24T07:30:24;3.35;;;1.52;;
21480;SDS011;10902;48.158;8.634;2023-04-24T07:32:49;3.90;;;1.65;;
21480;SDS011;10902;48.158;8.634;2023-04-24T07:35:15;4.55;;;1.60;;
21480;SDS011;10902;48.158;8.634;2023-04-24T07:37:41;4.25;;;1.67;;
21480;SDS011;10902;48.158;8.634;2023-04-24T07:40:10;4.18;;;1.55;;
21480;SDS011;10902;48.158;8.634;2023-04-24T07:42:37;3.55;;;1.50;;
21480;SDS011;10902;48.158;8.634;2023-04-24T07:45:03;4.20;;;1.60;;
21480;SDS011;10902;48.158;8.634;2023-04-24T07:47:29;4.60;;;1.50;;
21480;SDS011;10902;48.158;8.634;2023-04-24T07:49:55;4.15;;;1.85;;
21480;SDS011;10902;48.158;8.634;2023-04-24T07:52:21;5.72;;;2.10;;
21480;SDS011;10902;48.158;8.634;2023-04-24T07:54:46;4.20;;;1.80;;
21480;SDS011;10902;48.158;8.634;2023-04-24T07:57:12;4.45;;;1.75;;
21480;SDS011;10902;48.158;8.634;2023-04-24T07:59:38;4.00;;;1.52;;
21480;SDS011;10902;48.158;8.634;2023-04-24T08:02:04;4.20;;;1.65;;
21480;SDS011;10902;48.158;8.634;2023-04-24T08:04:31;3.53;;;1.58;;
21480;SDS011;10902;48.158;8.634;2023-04-24T08:06:58;4.10;;;1.80;;
21480;SDS011;10902;48.158;8.634;2023-04-24T08:09:23;4.43;;;2.30;;
21480;SDS011;10902;48.158;8.634;2023-04-24T08:11:49;4.18;;;1.70;;
21480;SDS011;10902;48.158;8.634;2023-04-24T08:14:15;4.30;;;2.20;;
21480;SDS011;10902;48.158;8.634;2023-04-24T08:16:40;4.65;;;1.85;;
21480;SDS011;10902;48.158;8.634;2023-04-24T08:19:06;3.75;;;1.73;;
21480;SDS011;10902;48.158;8.634;2023-04-24T08:21:32;4.47;;;1.83;;
21480;SDS011;10902;48.158;8.634;2023-04-24T08:23:57;5.65;;;2.10;;
21480;SDS011;10902;48.158;8.634;2023-04-24T08:26:23;4.57;;;1.70;;
21480;SDS011;10902;48.158;8.634;2023-04-24T08:28:49;3.20;;;1.50;;
21480;SDS011;10902;48.158;8.634;2023-04-24T08:31:15;4.38;;;1.95;;
21480;SDS011;10902;48.158;8.634;2023-04-24T08:33:40;6.13;;;1.90;;
21480;SDS011;10902;48.158;8.634;2023-04-24T08:36:06;5.70;;;1.83;;
21480;SDS011;10902;48.158;8.634;2023-04-24T08:38:33;3.92;;;1.70;;
21480;SDS011;10902;48.158;8.634;2023-04-24T08:40:59;4.05;;;1.40;;
21480;SDS011;10902;48.158;8.634;2023-04-24T08:43:25;4.65;;;1.67;;
21480;SDS011;10902;48.158;8.634;2023-04-24T08:45:52;4.65;;;1.52;;
21480;SDS011;10902;48.158;8.634;2023-04-24T08:48:20;5.30;;;1.73;;
21480;SDS011;10902;48.158;8.634;2023-04-24T08:50:47;3.63;;;1.73;;
21480;SDS011;10902;48.158;8.634;2023-04-24T08:53:15;4.10;;;2.08;;
21480;SDS011;10902;48.158;8.634;2023-04-24T08:55:41;5.05;;;1.90;;
21480;SDS011;10902;48.158;8.634;2023-04-24T08:58:08;5.07;;;1.92;;
21480;SDS011;10902;48.158;8.634;2023-04-24T09:00:34;5.18;;;1.83;;
21480;SDS011;10902;48.158;8.634;2023-04-24T09:03:00;3.90;;;2.08;;
21480;SDS011;10902;48.158;8.634;2023-04-24T09:05:29;5.07;;;2.15;;
21480;SDS011;10902;48.158;8.634;2023-04-24T09:07:56;4.50;;;2.30;;
21480;SDS011;10902;48.158;8.634;2023-04-24T09:10:23;4.60;;;2.40;;
21480;SDS011;10902;48.158;8.634;2023-04-24T09:12:50;5.50;;;2.78;;
21480;SDS011;10902;48.158;8.634;2023-04-24T09:15:16;7.25;;;3.28;;
21480;SDS011;10902;48.158;8.634;2023-04-24T09:17:46;4.95;;;2.50;;
21480;SDS011;10902;48.158;8.634;2023-04-24T09:20:12;4.82;;;2.80;;
21480;SDS011;10902;48.158;8.634;2023-04-24T09:22:38;5.55;;;2.63;;
21480;SDS011;10902;48.158;8.634;2023-04-24T09:25:04;6.53;;;2.70;;
21480;SDS011;10902;48.158;8.634;2023-04-24T09:27:32;6.72;;;2.70;;
21480;SDS011;10902;48.158;8.634;2023-04-24T09:29:58;7.07;;;3.30;;
21480;SDS011;10902;48.158;8.634;2023-04-24T09:32:25;4.30;;;2.42;;
21480;SDS011;10902;48.158;8.634;2023-04-24T09:35:07;5.43;;;2.33;;
21480;SDS011;10902;48.158;8.634;2023-04-24T09:37:43;7.80;;;3.05;;
21480;SDS011;10902;48.158;8.634;2023-04-24T09:40:17;4.45;;;2.30;;
21480;SDS011;10902;48.158;8.634;2023-04-24T09:42:51;5.15;;;2.60;;
21480;SDS011;10902;48.158;8.634;2023-04-24T09:45:19;6.10;;;2.38;;
21480;SDS011;10902;48.158;8.634;2023-04-24T09:47:45;4.60;;;2.40;;
21480;SDS011;10902;48.158;8.634;2023-04-24T09:52:45;5.63;;;2.22;;
21480;SDS011;10902;48.158;8.634;2023-04-24T09:55:19;4.60;;;2.28;;
21480;SDS011;10902;48.158;8.634;2023-04-24T09:57:49;4.40;;;2.28;;
21480;SDS011;10902;48.158;8.634;2023-04-24T10:00:21;4.35;;;2.20;;
21480;SDS011;10902;48.158;8.634;2023-04-24T10:03:01;4.65;;;2.33;;
21480;SDS011;10902;48.158;8.634;2023-04-24T10:05:36;6.35;;;2.30;;
21480;SDS011;10902;48.158;8.634;2023-04-24T10:08:10;4.30;;;2.30;;
21480;SDS011;10902;48.158;8.634;2023-04-24T10:10:46;4.63;;;2.33;;
21480;SDS011;10902;48.158;8.634;2023-04-24T10:13:12;4.53;;;2.20;;
21480;SDS011;10902;48.158;8.634;2023-04-24T10:15:40;4.88;;;2.20;;
21480;SDS011;10902;48.158;8.634;2023-04-24T10:18:07;5.55;;;2.85;;
21480;SDS011;10902;48.158;8.634;2023-04-24T10:20:35;5.38;;;2.40;;
21480;SDS011;10902;48.158;8.634;2023-04-24T10:23:02;5.32;;;2.20;;
21480;SDS011;10902;48.158;8.634;2023-04-24T10:25:33;6.55;;;2.20;;
21480;SDS011;10902;48.158;8.634;2023-04-24T10:28:00;5.00;;;1.98;;
21480;SDS011;10902;48.158;8.634;2023-04-24T10:30:27;4.88;;;2.10;;
21480;SDS011;10902;48.158;8.634;2023-04-24T10:33:00;4.05;;;1.90;;
21480;SDS011;10902;48.158;8.634;2023-04-24T10:35:27;5.22;;;2.20;;
21480;SDS011;10902;48.158;8.634;2023-04-24T10:38:07;5.38;;;1.90;;
21480;SDS011;10902;48.158;8.634;2023-04-24T10:40:37;4.32;;;1.75;;
21480;SDS011;10902;48.158;8.634;2023-04-24T10:43:07;4.88;;;1.70;;
21480;SDS011;10902;48.158;8.634;2023-04-24T10:45:35;5.22;;;1.80;;
21480;SDS011;10902;48.158;8.634;2023-04-24T10:48:02;4.03;;;2.03;;
21480;SDS011;10902;48.158;8.634;2023-04-24T10:50:30;4.97;;;1.88;;
21480;SDS011;10902;48.158;8.634;2023-04-24T10:53:11;4.65;;;2.00;;
21480;SDS011;10902;48.158;8.634;2023-04-24T10:55:45;5.28;;;1.70;;
21480;SDS011;10902;48.158;8.634;2023-04-24T10:58:11;4.50;;;2.00;;
21480;SDS011;10902;48.158;8.634;2023-04-24T11:00:40;4.47;;;1.67;;
21480;SDS011;10902;48.158;8.634;2023-04-24T11:03:23;4.53;;;1.42;;
21480;SDS011;10902;48.158;8.634;2023-04-24T11:05:50;3.92;;;1.60;;
21480;SDS011;10902;48.158;8.634;2023-04-24T11:08:22;5.72;;;2.03;;
21480;SDS011;10902;48.158;8.634;2023-04-24T11:10:56;3.88;;;1.42;;
21480;SDS011;10902;48.158;8.634;2023-04-24T11:16:31;3.67;;;1.58;;
21480;SDS011;10902;48.158;8.634;2023-04-24T11:19:07;4.38;;;1.50;;
21480;SDS011;10902;48.158;8.634;2023-04-24T11:26:59;4.68;;;1.50;;
21480;SDS011;10902;48.158;8.634;2023-04-24T11:29:44;4.90;;;1.15;;
21480;SDS011;10902;48.158;8.634;2023-04-24T11:32:36;2.67;;;1.00;;
21480;SDS011;10902;48.158;8.634;2023-04-24T11:35:07;2.95;;;1.05;;
21480;SDS011;10902;48.158;8.634;2023-04-24T11:37:34;2.80;;;0.77;;
21480;SDS011;10902;48.158;8.634;2023-04-24T11:40:01;2.35;;;0.60;;
21480;SDS011;10902;48.158;8.634;2023-04-24T11:42:29;2.70;;;0.75;;
21480;SDS011;10902;48.158;8.634;2023-04-24T11:45:08;3.50;;;0.85;;
21480;SDS011;10902;48.158;8.634;2023-04-24T11:47:55;3.83;;;0.70;;
21480;SDS011;10902;48.158;8.634;2023-04-24T11:50:21;4.13;;;0.70;;
21480;SDS011;10902;48.158;8.634;2023-04-24T11:52:50;1.50;;;0.68;;
21480;SDS011;10902;48.158;8.634;2023-04-24T11:57:43;2.83;;;0.70;;
21480;SDS011;10902;48.158;8.634;2023-04-24T12:00:20;2.42;;;0.90;;
21480;SDS011;10902;48.158;8.634;2023-04-24T12:02:47;3.80;;;1.02;;
21480;SDS011;10902;48.158;8.634;2023-04-24T12:05:20;1.63;;;0.70;;
21480;SDS011;10902;48.158;8.634;2023-04-24T12:07:46;3.72;;;0.80;;
21480;SDS011;10902;48.158;8.634;2023-04-24T12:10:12;2.60;;;0.82;;
21480;SDS011;10902;48.158;8.634;2023-04-24T12:12:37;4.75;;;1.10;;
21480;SDS011;10902;48.158;8.634;2023-04-24T12:15:07;2.53;;;0.82;;
21480;SDS011;10902;48.158;8.634;2023-04-24T12:17:34;2.83;;;1.10;;
21480;SDS011;10902;48.158;8.634;2023-04-24T12:20:05;3.03;;;0.95;;
21480;SDS011;10902;48.158;8.634;2023-04-24T12:25:21;2.90;;;0.77;;
21480;SDS011;10902;48.158;8.634;2023-04-24T12:30:20;2.75;;;0.90;;
21480;SDS011;10902;48.158;8.634;2023-04-24T12:32:47;4.07;;;0.80;;
21480;SDS011;10902;48.158;8.634;2023-04-24T12:35:14;2.80;;;0.70;;
21480;SDS011;10902;48.158;8.634;2023-04-24T12:37:45;2.45;;;0.70;;
21480;SDS011;10902;48.158;8.634;2023-04-24T12:40:12;2.60;;;0.70;;
21480;SDS011;10902;48.158;8.634;2023-04-24T12:42:42;2.53;;;0.82;;
21480;SDS011;10902;48.158;8.634;2023-04-24T12:45:13;2.55;;;0.70;;
21480;SDS011;10902;48.158;8.634;2023-04-24T12:47:40;2.75;;;0.80;;
21480;SDS011;10902;48.158;8.634;2023-04-24T12:50:10;2.10;;;0.70;;
21480;SDS011;10902;48.158;8.634;2023-04-24T12:52:38;1.95;;;0.77;;
21480;SDS011;10902;48.158;8.634;2023-04-24T12:55:04;2.33;;;0.90;;
21480;SDS011;10902;48.158;8.634;2023-04-24T12:57:32;2.80;;;1.15;;
21480;SDS011;10902;48.158;8.634;2023-04-24T12:59:59;2.60;;;0.88;;
21480;SDS011;10902;48.158;8.634;2023-04-24T13:02:27;2.95;;;0.80;;
21480;SDS011;10902;48.158;8.634;2023-04-24T13:04:55;4.22;;;0.80;;
21480;SDS011;10902;48.158;8.634;2023-04-24T13:07:22;2.67;;;1.05;;
21480;SDS011;10902;48.158;8.634;2023-04-24T13:09:48;3.20;;;0.88;;
21480;SDS011;10902;48.158;8.634;2023-04-24T13:12:14;2.35;;;1.00;;
21480;SDS011;10902;48.158;8.634;2023-04-24T13:14:40;5.18;;;1.10;;
21480;SDS011;10902;48.158;8.634;2023-04-24T13:17:06;3.55;;;0.93;;
21480;SDS011;10902;48.158;8.634;2023-04-24T13:19:36;3.45;;;1.10;;
21480;SDS011;10902;48.158;8.634;2023-04-24T13:22:02;2.85;;;1.20;;
21480;SDS011;10902;48.158;8.634;2023-04-24T13:24:28;3.63;;;1.27;;
21480;SDS011;10902;48.158;8.634;2023-04-24T13:26:54;3.55;;;1.38;;
21480;SDS011;10902;48.158;8.634;2023-04-24T13:29:21;3.58;;;1.45;;
21480;SDS011;10902;48.158;8.634;2023-04-24T13:31:49;3.35;;;1.20;;
21480;SDS011;10902;48.158;8.634;2023-04-24T13:34:16;3.45;;;1.30;;
21480;SDS011;10902;48.158;8.634;2023-04-24T13:36:42;4.32;;;1.30;;
21480;SDS011;10902;48.158;8.634;2023-04-24T13:39:07;3.58;;;1.33;;
21480;SDS011;10902;48.158;8.634;2023-04-24T13:41:33;2.95;;;1.15;;
21480;SDS011;10902;48.158;8.634;2023-04-24T13:44:00;5.28;;;1.17;;
21480;SDS011;10902;48.158;8.634;2023-04-24T13:46:26;3.33;;;1.17;;
21480;SDS011;10902;48.158;8.634;2023-04-24T13:48:51;4.18;;;1.38;;
21480;SDS011;10902;48.158;8.634;2023-04-24T13:51:17;4.40;;;1.20;;
21480;SDS011;10902;48.158;8.634;2023-04-24T13:53:43;4.80;;;1.10;;
21480;SDS011;10902;48.158;8.634;2023-04-24T13:56:08;3.38;;;1.20;;
21480;SDS011;10902;48.158;8.634;2023-04-24T13:58:34;4.28;;;1.10;;
21480;SDS011;10902;48.158;8.634;2023-04-24T14:01:02;3.45;;;1.40;;
21480;SDS011;10902;48.158;8.634;2023-04-24T14:03:28;5.35;;;1.75;;
21480;SDS011;10902;48.158;8.634;2023-04-24T14:05:53;3.67;;;1.30;;
21480;SDS011;10902;48.158;8.634;2023-04-24T14:08:19;3.90;;;1.30;;
21480;SDS011;10902;48.158;8.634;2023-04-24T14:10:45;4.65;;;1.50;;
21480;SDS011;10902;48.158;8.634;2023-04-24T14:13:10;3.35;;;1.10;;
21480;SDS011;10902;48.158;8.634;2023-04-24T14:15:36;3.95;;;1.40;;
21480;SDS011;10902;48.158;8.634;2023-04-24T14:18:02;3.20;;;1.40;;
21480;SDS011;10902;48.158;8.634;2023-04-24T14:20:28;4.10;;;1.30;;
21480;SDS011;10902;48.158;8.634;2023-04-24T14:22:54;5.07;;;1.40;;
21480;SDS011;10902;48.158;8.634;2023-04-24T14:25:20;3.75;;;1.30;;
21480;SDS011;10902;48.158;8.634;2023-04-24T14:27:47;3.25;;;1.20;;
21480;SDS011;10902;48.158;8.634;2023-04-24T14:30:13;3.83;;;1.30;;
21480;SDS011;10902;48.158;8.634;2023-04-24T14:32:40;3.95;;;1.38;;
21480;SDS011;10902;48.158;8.634;2023-04-24T14:35:06;3.90;;;1.48;;
21480;SDS011;10902;48.158;8.634;2023-04-24T14:37:32;4.40;;;1.30;;
21480;SDS011;10902;48.158;8.634;2023-04-24T14:39:58;3.67;;;1.27;;
21480;SDS011;10902;48.158;8.634;2023-04-24T14:42:23;4.25;;;1.50;;
21480;SDS011;10902;48.158;8.634;2023-04-24T14:44:49;4.03;;;1.30;;
21480;SDS011;10902;48.158;8.634;2023-04-24T14:47:15;3.25;;;1.17;;
21480;SDS011;10902;48.158;8.634;2023-04-24T14:49:42;4.38;;;1.60;;
21480;SDS011;10902;48.158;8.634;2023-04-24T14:52:09;3.65;;;1.20;;
21480;SDS011;10902;48.158;8.634;2023-04-24T14:54:35;4.85;;;1.40;;
21480;SDS011;10902;48.158;8.634;2023-04-24T14:57:00;3.08;;;1.20;;
21480;SDS011;10902;48.158;8.634;2023-04-24T14:59:27;2.25;;;0.82;;
21480;SDS011;10902;48.158;8.634;2023-04-24T15:01:53;4.45;;;1.40;;
21480;SDS011;10902;48.158;8.634;2023-04-24T15:04:22;4.47;;;1.20;;
21480;SDS011;10902;48.158;8.634;2023-04-24T15:06:52;3.58;;;1.30;;
21480;SDS011;10902;48.158;8.634;2023-04-24T15:09:21;3.35;;;1.13;;